Time;durP1;ratioP1;P1;durP2;ratioP2;P2;SDS_P1;SDS_P2;PMS_P1;PMS_P2;Temp;Humidity;BMP_temperature;BMP_pressure;BME280_temperature;BME280_humidity;BME280_pressure;Samples;Min_cycle;Max_cycle;Signal;HPM_P1;HPM_P2
2023/04/10 00:00:56;;;;;;;12.73;7.78;;;;;;;;;;1348039;28;10000656;-89
2023/04/10 00:01:56;;;;;;;11.65;8.00;;;;;;;;;;2039468;29;20027;-90
2023/04/10 00:03:02;;;;;;;;;;;;;;;;;;2046975;28;20526;-90
2023/04/10 00:04:04;;;;;;;14.48;8.63;;;;;;;;;;2038665;29;19911;-90
2023/04/10 00:05:06;;;;;;;13.35;7.90;;;;;;;;;;2038779;29;20011;-90
2023/04/10 00:06:06;;;;;;;13.90;7.70;;;;;;;;;;2038843;29;20513;-91
2023/04/10 00:07:06;;;;;;;;;;;;;;;;;;2041125;29;20111;-89
2023/04/10 00:08:07;;;;;;;11.40;7.95;;;;;;;;;;2044743;29;19921;-87
2023/04/10 00:09:09;;;;;;;14.48;9.27;;;;;;;;;;2043097;29;20118;-88
2023/04/10 00:10:09;;;;;;;12.40;7.28;;;;;;;;;;2046940;28;20469;-89
2023/04/10 00:11:10;;;;;;;;;;;;;;;;;;2039095;28;20032;-88
2023/04/10 00:12:10;;;;;;;13.07;8.30;;;;;;;;;;2038933;29;19950;-89
2023/04/10 00:13:10;;;;;;;11.75;7.93;;;;;;;;;;2038501;29;20091;-89
2023/04/10 00:14:11;;;;;;;12.43;7.90;;;;;;;;;;2030699;29;20271;-90
2023/04/10 00:15:11;;;;;;;12.25;8.23;;;;;;;;;;2038513;29;20030;-89
2023/04/10 00:16:11;;;;;;;;;;;;;;;;;;2046960;29;20545;-89
2023/04/10 00:17:12;;;;;;;11.30;7.53;;;;;;;;;;2038604;29;19910;-89
2023/04/10 00:18:12;;;;;;;15.00;9.35;;;;;;;;;;2030765;29;20443;-88
2023/04/10 00:19:12;;;;;;;;;;;;;;;;;;2039078;29;20047;-88
2023/04/10 00:20:13;;;;;;;13.13;9.00;;;;;;;;;;2038969;29;19921;-89
2023/04/10 00:21:14;;;;;;;;;;;;;;;;;;2031252;29;20060;-89
2023/04/10 00:22:14;;;;;;;14.73;9.37;;;;;;;;;;2030787;29;19915;-89
2023/04/10 00:23:15;;;;;;;;;;;;;;;;;;2038916;29;20959;-88
2023/04/10 00:24:15;;;;;;;13.77;8.73;;;;;;;;;;2046605;29;19910;-88
2023/04/10 00:25:15;;;;;;;;;;;;;;;;;;2039040;29;20481;-89
2023/04/10 00:26:16;;;;;;;15.77;10.63;;;;;;;;;;2038704;29;20387;-89
2023/04/10 00:27:17;;;;;;;;;;;;;;;;;;2039175;29;20030;-89
2023/04/10 00:28:17;;;;;;;15.07;9.33;;;;;;;;;;2040223;29;19941;-89
2023/04/10 00:29:17;;;;;;;;;;;;;;;;;;2041391;29;20054;-90
2023/04/10 00:30:18;;;;;;;17.13;9.55;;;;;;;;;;2038699;29;19934;-90
2023/04/10 00:31:19;;;;;;;;;;;;;;;;;;2031066;29;20067;-90
2023/04/10 00:32:19;;;;;;;13.00;9.60;;;;;;;;;;2038780;29;19910;-89
2023/04/10 00:33:19;;;;;;;13.70;9.10;;;;;;;;;;2046364;28;20059;-90
2023/04/10 00:34:20;;;;;;;12.90;9.07;;;;;;;;;;2046568;29;20038;-89
2023/04/10 00:35:20;;;;;;;17.17;9.98;;;;;;;;;;2046599;29;20210;-89
2023/04/10 00:36:20;;;;;;;18.75;9.68;;;;;;;;;;2046496;29;20680;-88
2023/04/10 00:37:21;;;;;;;12.02;8.80;;;;;;;;;;2038430;29;20068;-89
2023/04/10 00:38:23;;;;;;;17.25;9.05;;;;;;;;;;2038499;29;20043;-88
2023/04/10 00:39:23;;;;;;;12.20;8.80;;;;;;;;;;2039195;29;20046;-89
2023/04/10 00:40:24;;;;;;;;;;;;;;;;;;2038914;28;20271;-89
2023/04/10 00:41:24;;;;;;;17.23;9.93;;;;;;;;;;2030798;29;20372;-88
2023/04/10 00:42:25;;;;;;;;;;;;;;;;;;2038588;28;20051;-89
2023/04/10 00:43:26;;;;;;;14.90;8.93;;;;;;;;;;2046395;29;19959;-89
2023/04/10 00:44:26;;;;;;;15.98;9.05;;;;;;;;;;2038169;29;20183;-88
2023/04/10 00:45:27;;;;;;;15.30;9.15;;;;;;;;;;2038151;29;20055;-88
2023/04/10 00:46:28;;;;;;;16.58;9.77;;;;;;;;;;2046198;29;20051;-88
2023/04/10 00:47:28;;;;;;;20.08;9.88;;;;;;;;;;2046269;29;20058;-87
2023/04/10 00:48:29;;;;;;;;;;;;;;;;;;2046864;29;20142;-88
2023/04/10 00:49:30;;;;;;;18.13;9.73;;;;;;;;;;2038342;29;20401;-88
2023/04/10 00:50:30;;;;;;;20.45;11.00;;;;;;;;;;2030423;29;20095;-88
2023/04/10 00:51:31;;;;;;;;;;;;;;;;;;2038570;29;20106;-88
2023/04/10 00:52:31;;;;;;;13.37;9.70;;;;;;;;;;2039028;28;19972;-88
2023/04/10 00:53:31;;;;;;;;;;;;;;;;;;2039210;29;20031;-88
2023/04/10 00:54:33;;;;;;;15.63;9.60;;;;;;;;;;2038124;29;20060;-88
2023/04/10 00:55:34;;;;;;;17.40;9.70;;;;;;;;;;2038289;29;20024;-89
2023/04/10 00:56:35;;;;;;;;;;;;;;;;;;2039423;29;20059;-87
2023/04/10 00:57:36;;;;;;;12.88;8.75;;;;;;;;;;2038082;29;20325;-89
2023/04/10 00:58:40;;;;;;;17.48;9.93;;;;;;;;;;2042436;29;20116;-88
2023/04/10 00:59:40;;;;;;;14.77;8.95;;;;;;;;;;2058627;28;20027;-94
2023/04/10 01:00:41;;;;;;;;;;;;;;;;;;2058647;28;20063;-89
2023/04/10 01:01:42;;;;;;;15.10;10.03;;;;;;;;;;2048087;29;19911;-89
2023/04/10 01:02:42;;;;;;;;;;;;;;;;;;2041938;29;20107;-89
2023/04/10 01:03:43;;;;;;;14.67;9.80;;;;;;;;;;2039760;29;20358;-91
2023/04/10 01:04:43;;;;;;;15.85;9.38;;;;;;;;;;2031635;29;20508;-88
2023/04/10 01:06:00;;;;;;;14.73;8.52;;;;;;;;;;2038774;29;20425;-89
2023/04/10 01:07:28;;;;;;;12.80;8.70;;;;;;;;;;2038723;29;20026;-88
2023/04/10 01:08:40;;;;;;;12.65;8.48;;;;;;;;;;2039247;29;20568;-88
2023/04/10 01:09:47;;;;;;;10.93;7.95;;;;;;;;;;2039031;29;20380;-88
2023/04/10 01:10:54;;;;;;;14.43;8.18;;;;;;;;;;2039867;29;20289;-89
2023/04/10 01:12:01;;;;;;;11.65;7.70;;;;;;;;;;2038270;29;20028;-90
2023/04/10 01:13:13;;;;;;;12.00;7.60;;;;;;;;;;2050881;29;20036;-87
2023/04/10 01:14:46;;;;;;;10.02;7.07;;;;;;;;;;1703161;28;10001617;-89
2023/04/10 01:15:51;;;;;;;10.32;7.18;;;;;;;;;;2045121;28;20396;-89
2023/04/10 01:17:06;;;;;;;11.10;6.90;;;;;;;;;;2041057;28;20470;-88
2023/04/10 01:18:15;;;;;;;12.30;8.25;;;;;;;;;;2038298;29;20054;-88
2023/04/10 01:19:45;;;;;;;12.10;7.78;;;;;;;;;;2041896;29;20011;-88
2023/04/10 01:20:45;;;;;;;11.75;7.60;;;;;;;;;;2055425;29;20019;-88
2023/04/10 01:21:46;;;;;;;;;;;;;;;;;;2048422;29;20035;-88
2023/04/10 01:23:08;;;;;;;12.10;8.20;;;;;;;;;;2042070;29;20392;-88
2023/04/10 01:24:23;;;;;;;13.48;8.65;;;;;;;;;;2047066;29;20409;-90
2023/04/10 01:25:48;;;;;;;12.85;8.63;;;;;;;;;;2046469;28;20027;-88
2023/04/10 01:26:54;;;;;;;12.23;8.18;;;;;;;;;;2038096;29;20123;-88
2023/04/10 01:28:20;;;;;;;15.48;8.68;;;;;;;;;;2038596;29;20034;-88
2023/04/10 01:29:25;;;;;;;12.40;8.30;;;;;;;;;;2038173;29;20055;-89
2023/04/10 01:30:26;;;;;;;12.35;8.65;;;;;;;;;;2040531;29;20051;-88
2023/04/10 01:31:26;;;;;;;;;;;;;;;;;;2046585;28;20034;-89
2023/04/10 01:32:29;;;;;;;13.10;8.67;;;;;;;;;;2046457;29;19921;-89
2023/04/10 01:33:37;;;;;;;11.35;8.05;;;;;;;;;;2045715;28;20045;-87
2023/04/10 01:34:44;;;;;;;13.23;8.43;;;;;;;;;;2037932;29;20530;-89
2023/04/10 01:35:49;;;;;;;14.23;8.75;;;;;;;;;;2039115;29;20028;-88
2023/04/10 01:36:56;;;;;;;9.90;7.70;;;;;;;;;;2038050;29;20020;-89
2023/04/10 01:38:00;;;;;;;13.35;8.38;;;;;;;;;;2038922;29;20522;-88
2023/04/10 01:39:02;;;;;;;11.73;7.82;;;;;;;;;;2045494;29;20309;-89
2023/04/10 01:40:07;;;;;;;12.00;8.52;;;;;;;;;;2045287;28;20095;-89
2023/04/10 01:41:07;;;;;;;14.45;8.63;;;;;;;;;;2045413;29;20114;-88
2023/04/10 01:42:09;;;;;;;;;;;;;;;;;;2045980;28;20106;-88
2023/04/10 01:43:10;;;;;;;;;;;;;;;;;;2046001;29;19914;-88
2023/04/10 01:44:13;;;;;;;11.60;8.10;;;;;;;;;;2037733;29;20052;-88
2023/04/10 01:45:17;;;;;;;12.50;8.45;;;;;;;;;;2029860;29;20391;-88
2023/04/10 01:46:20;;;;;;;12.70;8.75;;;;;;;;;;2038113;29;20082;-87
2023/04/10 01:47:21;;;;;;;13.48;8.25;;;;;;;;;;2037538;29;20426;-88
2023/04/10 01:48:22;;;;;;;12.25;8.45;;;;;;;;;;2037997;29;20020;-88
2023/04/10 01:49:24;;;;;;;;;;;;;;;;;;2038030;29;20463;-88
2023/04/10 01:50:27;;;;;;;15.65;10.10;;;;;;;;;;1689542;29;10236657;-87
2023/04/10 01:51:30;;;;;;;13.60;8.80;;;;;;;;;;2037804;29;20032;-87
2023/04/10 01:52:31;;;;;;;12.20;8.13;;;;;;;;;;2037595;29;20098;-88
2023/04/10 01:53:32;;;;;;;12.73;8.27;;;;;;;;;;2038369;29;20034;-88
2023/04/10 01:54:34;;;;;;;11.90;7.90;;;;;;;;;;2039035;29;20019;-88
2023/04/10 01:55:36;;;;;;;11.88;8.02;;;;;;;;;;2034641;29;20020;-88
2023/04/10 01:56:37;;;;;;;13.55;7.88;;;;;;;;;;2039180;28;20194;-87
2023/04/10 01:57:38;;;;;;;10.98;7.82;;;;;;;;;;2045823;29;20031;-88
2023/04/10 01:58:38;;;;;;;;;;;;;;;;;;2046394;29;20027;-87
2023/04/10 01:59:38;;;;;;;12.67;8.77;;;;;;;;;;2045881;29;19917;-89
2023/04/10 02:00:42;;;;;;;;;;;;;;;;;;2039348;29;20107;-87
2023/04/10 02:01:43;;;;;;;11.43;7.13;;;;;;;;;;2037914;29;20398;-87
2023/04/10 02:02:43;;;;;;;;;;;;;;;;;;2030470;29;20021;-88
2023/04/10 02:03:44;;;;;;;16.20;8.82;;;;;;;;;;2037973;29;20085;-89
2023/04/10 02:04:50;;;;;;;;;;;;;;;;;;2046428;29;20042;-90
2023/04/10 02:05:50;;;;;;;16.33;8.98;;;;;;;;;;2038111;29;19910;-88
2023/04/10 02:07:01;;;;;;;;;;;;;;;;;;2038125;29;20039;-88
2023/04/10 02:08:11;;;;;;;20.75;9.35;;;;;;;;;;2038080;28;19915;-88
2023/04/10 02:09:16;;;;;;;16.88;9.52;;;;;;;;;;2038076;29;20039;-89
2023/04/10 02:10:20;;;;;;;17.23;10.55;;;;;;;;;;2038503;29;20060;-89
2023/04/10 02:11:26;;;;;;;17.05;9.85;;;;;;;;;;2038963;29;20031;-89
2023/04/10 02:12:40;;;;;;;14.98;8.73;;;;;;;;;;2045718;29;20090;-89
2023/04/10 02:13:41;;;;;;;13.70;8.95;;;;;;;;;;2037666;29;20026;-89
2023/04/10 02:14:44;;;;;;;;;;;;;;;;;;2038139;29;20342;-89
2023/04/10 02:15:46;;;;;;;13.02;8.38;;;;;;;;;;2038396;29;20402;-89
2023/04/10 02:16:50;;;;;;;12.88;7.95;;;;;;;;;;2038713;29;20059;-89
2023/04/10 02:17:51;;;;;;;13.35;8.57;;;;;;;;;;2045737;29;20165;-89
2023/04/10 02:18:53;;;;;;;15.35;8.93;;;;;;;;;;2045582;29;20614;-88
2023/04/10 02:19:56;;;;;;;12.30;7.88;;;;;;;;;;2045436;29;20170;-89
2023/04/10 02:20:56;;;;;;;12.60;8.75;;;;;;;;;;2040908;29;20493;-89
2023/04/10 02:21:57;;;;;;;;;;;;;;;;;;2039530;29;20054;-89
2023/04/10 02:23:02;;;;;;;12.50;8.25;;;;;;;;;;2037873;29;19929;-90
2023/04/10 02:24:03;;;;;;;12.68;8.27;;;;;;;;;;2037910;29;20106;-89
2023/04/10 02:25:04;;;;;;;;;;;;;;;;;;2039340;29;20019;-89
2023/04/10 02:26:08;;;;;;;15.88;8.23;;;;;;;;;;2038914;29;19957;-89
2023/04/10 02:27:08;;;;;;;12.13;8.05;;;;;;;;;;2038870;29;20091;-88
2023/04/10 02:28:09;;;;;;;;;;;;;;;;;;2039011;28;20063;-87
2023/04/10 02:29:09;;;;;;;12.15;8.10;;;;;;;;;;2038257;29;19989;-88
2023/04/10 02:30:10;;;;;;;13.23;9.13;;;;;;;;;;2039469;28;20486;-88
2023/04/10 02:31:10;;;;;;;;;;;;;;;;;;2039700;29;20028;-87
2023/04/10 02:32:11;;;;;;;13.07;7.80;;;;;;;;;;2038079;29;19911;-87
2023/04/10 02:33:11;;;;;;;;;;;;;;;;;;2045964;29;20069;-87
2023/04/10 02:34:11;;;;;;;11.40;7.72;;;;;;;;;;2037842;29;19946;-89
2023/04/10 02:35:12;;;;;;;;;;;;;;;;;;2038157;29;20491;-88
2023/04/10 02:36:13;;;;;;;11.60;7.73;;;;;;;;;;2045839;29;19957;-89
2023/04/10 02:37:13;;;;;;;16.55;9.45;;;;;;;;;;2045660;29;20430;-90
2023/04/10 02:38:13;;;;;;;14.60;9.02;;;;;;;;;;2037803;29;20122;-90
2023/04/10 02:39:14;;;;;;;13.75;8.77;;;;;;;;;;2037853;29;20087;-88
2023/04/10 02:40:14;;;;;;;12.55;8.77;;;;;;;;;;2045664;28;20070;-87
2023/04/10 02:41:15;;;;;;;;;;;;;;;;;;2046680;29;20023;-87
2023/04/10 02:42:15;;;;;;;11.87;7.73;;;;;;;;;;2038308;29;19965;-87
2023/04/10 02:43:16;;;;;;;;;;;;;;;;;;2038481;29;20110;-88
2023/04/10 02:44:16;;;;;;;13.48;8.05;;;;;;;;;;2038160;28;19934;-88
2023/04/10 02:45:16;;;;;;;;;;;;;;;;;;2030487;29;20039;-88
2023/04/10 02:46:17;;;;;;;13.98;8.65;;;;;;;;;;2030047;29;19968;-90
2023/04/10 02:47:17;;;;;;;;;;;;;;;;;;2038356;29;20794;-89
2023/04/10 02:48:17;;;;;;;15.57;8.98;;;;;;;;;;2048295;29;20001;-89
2023/04/10 02:49:18;;;;;;;;;;;;;;;;;;2043333;29;20023;-87
2023/04/10 02:50:18;;;;;;;11.50;8.70;;;;;;;;;;2038331;29;19935;-89
2023/04/10 02:51:19;;;;;;;15.70;9.85;;;;;;;;;;2046352;28;20027;-89
2023/04/10 02:52:19;;;;;;;;;;;;;;;;;;2048596;28;20055;-88
2023/04/10 02:53:21;;;;;;;15.27;10.10;;;;;;;;;;2039250;29;20426;-90
2023/04/10 02:54:22;;;;;;;17.17;11.15;;;;;;;;;;2039264;29;20031;-89
2023/04/10 02:55:22;;;;;;;;;;;;;;;;;;2039576;29;20031;-89
2023/04/10 02:56:24;;;;;;;15.98;10.02;;;;;;;;;;2047312;29;19966;-88
2023/04/10 02:57:26;;;;;;;17.70;11.35;;;;;;;;;;2047343;29;20267;-90
2023/04/10 02:58:27;;;;;;;15.73;10.95;;;;;;;;;;2039327;29;20471;-88
2023/04/10 02:59:27;;;;;;;;;;;;;;;;;;2031949;29;20056;-88
2023/04/10 03:00:27;;;;;;;18.37;10.53;;;;;;;;;;2039327;29;19921;-88
2023/04/10 03:01:28;;;;;;;;;;;;;;;;;;2047871;29;20043;-89
2023/04/10 03:02:28;;;;;;;18.57;10.10;;;;;;;;;;2040360;29;19978;-88
2023/04/10 03:03:29;;;;;;;18.15;11.57;;;;;;;;;;2047107;29;20440;-89
2023/04/10 03:04:32;;;;;;;16.98;10.85;;;;;;;;;;2039555;29;20112;-89
2023/04/10 03:05:33;;;;;;;18.00;9.77;;;;;;;;;;1699469;29;10000551;-90
2023/04/10 03:06:34;;;;;;;14.60;9.40;;;;;;;;;;2039310;29;20453;-89
2023/04/10 03:07:34;;;;;;;;;;;;;;;;;;2040700;29;20419;-89
2023/04/10 03:08:35;;;;;;;16.37;10.03;;;;;;;;;;2040026;29;19918;-90
2023/04/10 03:09:35;;;;;;;;;;;;;;;;;;2032394;29;20031;-88
2023/04/10 03:10:35;;;;;;;14.40;9.40;;;;;;;;;;2039261;29;19922;-89
2023/04/10 03:11:36;;;;;;;12.80;8.80;;;;;;;;;;2040124;29;20058;-89
2023/04/10 03:12:36;;;;;;;;;;;;;;;;;;2039933;28;20024;-89
2023/04/10 03:55:51;;;;;;;15.02;10.45;;;;;;;;;;1657134;26;20040;-90
2023/04/10 03:56:51;;;;;;;14.05;10.38;;;;;;;;;;2040161;29;20036;-89
2023/04/10 04:02:38;;;;;;;15.95;9.80;;;;;;;;;;2038696;29;20416;-87
2023/04/10 04:03:39;;;;;;;16.13;10.50;;;;;;;;;;1991599;29;20058;-89
2023/04/10 04:04:39;;;;;;;;;;;;;;;;;;2019010;29;20464;-89
2023/04/10 04:08:12;;;;;;;17.63;10.98;;;;;;;;;;2048879;28;20035;-89
2023/04/10 04:09:13;;;;;;;18.20;11.00;;;;;;;;;;2041024;29;20776;-89
2023/04/10 04:10:13;;;;;;;;;;;;;;;;;;2041200;29;20023;-88
2023/04/10 04:11:13;;;;;;;18.93;12.47;;;;;;;;;;2031234;29;19911;-89
2023/04/10 04:38:28;;;;;;;28.42;16.38;;;;;;;;;;1954936;30;20561;-89
2023/04/10 04:46:59;;;;;;;26.58;15.05;;;;;;;;;;1984123;29;20472;-88
2023/04/10 04:47:59;;;;;;;27.63;18.00;;;;;;;;;;2008184;29;20357;-89
2023/04/10 04:49:00;;;;;;;;;;;;;;;;;;2007001;29;20512;-88
2023/04/10 04:50:04;;;;;;;61.45;26.85;;;;;;;;;;2007054;29;19940;-89
2023/04/10 04:51:07;;;;;;;32.42;15.38;;;;;;;;;;2006762;29;20564;-89
2023/04/10 04:52:08;;;;;;;26.88;16.98;;;;;;;;;;2006487;29;20548;-89
2023/04/10 04:53:08;;;;;;;;;;;;;;;;;;2019382;29;20036;-88
2023/04/10 04:57:17;;;;;;;23.83;14.98;;;;;;;;;;2033241;29;20041;-88
2023/04/10 04:58:17;;;;;;;32.95;17.35;;;;;;;;;;2032942;29;20070;-89
2023/04/10 04:59:17;;;;;;;;;;;;;;;;;;2041566;29;20043;-88
2023/04/10 05:00:18;;;;;;;28.07;15.20;;;;;;;;;;1692701;28;10347842;-88
2023/04/10 05:01:36;;;;;;;23.80;13.77;;;;;;;;;;2045542;28;20561;-87
2023/04/10 05:02:37;;;;;;;24.20;13.30;;;;;;;;;;2046061;28;20447;-87
2023/04/10 05:03:37;;;;;;;;;;;;;;;;;;2054957;28;20428;-88
2023/04/10 05:06:40;;;;;;;21.75;12.50;;;;;;;;;;2054522;28;20093;-88
2023/04/10 05:07:43;;;;;;;20.55;12.80;;;;;;;;;;2061979;28;20038;-88
2023/04/10 05:08:45;;;;;;;20.67;11.85;;;;;;;;;;2053521;28;20034;-87
2023/04/10 05:10:13;;;;;;;19.58;11.05;;;;;;;;;;2048538;28;20062;-89
2023/04/10 05:11:28;;;;;;;19.42;11.88;;;;;;;;;;2057616;28;20504;-88
2023/04/10 05:12:31;;;;;;;18.67;12.20;;;;;;;;;;2053894;28;20027;-87
2023/04/10 05:22:35;;;;;;;13.98;9.75;;;;;;;;;;2045212;29;20023;-88
2023/04/10 05:32:24;;;;;;;15.40;10.02;;;;;;;;;;1998907;29;20478;-86
2023/04/10 05:33:17;;;;;;;19.00;10.80;;;;;;;;;;1999988;29;20032;-87
2023/04/10 05:34:18;;;;;;;;;;;;;;;;;;2014059;29;20037;-87
2023/04/10 05:35:21;;;;;;;19.57;10.43;;;;;;;;;;2015664;29;20368;-87
2023/04/10 05:36:22;;;;;;;25.58;10.98;;;;;;;;;;2014208;29;20504;-87
2023/04/10 05:37:22;;;;;;;;;;;;;;;;;;2014420;29;20041;-89
2023/04/10 05:41:15;;;;;;;;;;;;;;;;;;;;;
2023/04/10 05:42:15;;;;;;;17.63;9.57;;;;;;;;;;2045136;28;20035;-88
2023/04/10 05:43:16;;;;;;;;;;;;;;;;;;2054255;28;20128;-88
2023/04/10 05:44:16;;;;;;;15.13;9.67;;;;;;;;;;2053740;28;19914;-88
2023/04/10 05:45:17;;;;;;;18.33;10.88;;;;;;;;;;2054564;28;20034;-88
2023/04/10 05:52:39;;;;;;;15.93;9.80;;;;;;;;;;2045808;28;20027;-88
2023/04/10 05:54:05;;;;;;;;;;;;;;;;;;;;;
2023/04/10 05:55:32;;;;;;;18.25;9.95;;;;;;;;;;2045287;28;20095;-88
2023/04/10 05:56:33;;;;;;;17.55;10.32;;;;;;;;;;2046374;28;20111;-90
2023/04/10 05:57:33;;;;;;;15.93;10.65;;;;;;;;;;2045310;29;20059;-88
2023/04/10 06:00:21;;;;;;;21.70;10.82;;;;;;;;;;2044982;29;20235;-89
2023/04/10 06:01:35;;;;;;;15.96;9.40;;;;;;;;;;2040602;29;10074028;-89
2023/04/10 06:03:17;;;;;;;15.82;10.23;;;;;;;;;;2050150;28;20266;-89
2023/04/10 06:04:20;;;;;;;19.42;11.02;;;;;;;;;;2060333;28;20047;-88
2023/04/10 06:05:20;;;;;;;17.63;10.60;;;;;;;;;;2060900;28;20041;-88
2023/04/10 06:06:23;;;;;;;18.05;10.55;;;;;;;;;;2048869;28;20066;-89
2023/04/10 06:07:28;;;;;;;16.27;10.35;;;;;;;;;;2053758;28;20041;-89
2023/04/10 06:08:34;;;;;;;18.10;10.73;;;;;;;;;;2060915;28;20077;-89
2023/04/10 06:09:34;;;;;;;15.63;9.73;;;;;;;;;;2054043;28;20026;-90
2023/04/10 06:10:35;;;;;;;15.18;9.32;;;;;;;;;;2056312;28;20065;-89
2023/04/10 06:11:35;;;;;;;15.05;9.25;;;;;;;;;;2045400;28;20118;-88
2023/04/10 06:12:35;;;;;;;;;;;;;;;;;;2053883;28;20026;-88
2023/04/10 06:13:36;;;;;;;13.13;8.37;;;;;;;;;;2058891;28;20007;-88
2023/04/10 06:16:48;;;;;;;9.70;7.00;;;;;;;;;;2044825;29;20448;-88
2023/04/10 06:17:48;;;;;;;11.60;7.38;;;;;;;;;;2037048;29;20102;-88
2023/04/10 06:22:58;;;;;;;9.48;6.53;;;;;;;;;;2066065;28;20034;-88
2023/04/10 06:24:33;;;;;;;8.90;6.53;;;;;;;;;;2022530;29;20473;-89
2023/04/10 06:25:33;;;;;;;9.32;5.95;;;;;;;;;;2024238;28;20036;-89
2023/04/10 06:26:49;;;;;;;;;;;;;;;;;;;;;
2023/04/10 06:27:50;;;;;;;12.95;7.15;;;;;;;;;;2074420;28;20090;-89
2023/04/10 06:28:50;;;;;;;9.70;6.78;;;;;;;;;;2065515;28;20030;-88
2023/04/10 06:29:51;;;;;;;;;;;;;;;;;;2052735;28;20111;-88
2023/04/10 06:30:51;;;;;;;9.93;6.50;;;;;;;;;;2058995;28;19921;-88
2023/04/10 06:31:54;;;;;;;8.32;6.10;;;;;;;;;;2066509;28;20077;-87
2023/04/10 06:32:55;;;;;;;9.02;5.97;;;;;;;;;;2064599;28;20038;-86
2023/04/10 06:34:01;;;;;;;10.20;5.38;;;;;;;;;;2063856;28;20426;-88
2023/04/10 06:35:02;;;;;;;7.68;5.07;;;;;;;;;;2064868;28;20090;-89
2023/04/10 06:36:03;;;;;;;7.60;5.60;;;;;;;;;;2065232;28;20482;-88
2023/04/10 06:37:34;;;;;;;8.13;5.45;;;;;;;;;;2064860;28;20026;-89
2023/04/10 06:38:36;;;;;;;8.20;5.40;;;;;;;;;;2066843;28;20034;-88
2023/04/10 06:39:38;;;;;;;8.15;5.20;;;;;;;;;;2064181;28;20069;-90
2023/04/10 06:40:39;;;;;;;8.90;5.57;;;;;;;;;;2055712;28;20066;-90
2023/04/10 06:41:40;;;;;;;9.75;6.10;;;;;;;;;;2047684;28;20031;-89
2023/04/10 06:42:40;;;;;;;12.00;6.32;;;;;;;;;;2055239;28;20058;-89
2023/04/10 06:43:41;;;;;;;9.65;6.05;;;;;;;;;;2064737;28;20046;-89
2023/04/10 06:44:41;;;;;;;8.48;5.93;;;;;;;;;;1711752;28;10250930;-88
2023/04/10 06:45:41;;;;;;;;;;;;;;;;;;2056431;28;20079;-89
2023/04/10 06:46:45;;;;;;;8.30;5.50;;;;;;;;;;2065990;28;19918;-90
2023/04/10 06:47:45;;;;;;;7.90;4.88;;;;;;;;;;2066357;28;20046;-90
2023/04/10 06:48:46;;;;;;;6.55;4.97;;;;;;;;;;2065704;28;20027;-89
2023/04/10 06:49:46;;;;;;;6.18;4.38;;;;;;;;;;2057948;28;20139;-89
2023/04/10 06:50:47;;;;;;;7.57;4.50;;;;;;;;;;2057732;28;20023;-90
2023/04/10 06:51:47;;;;;;;6.15;4.50;;;;;;;;;;2065463;28;20505;-91
2023/04/10 06:52:48;;;;;;;6.75;4.95;;;;;;;;;;2055906;28;20030;-90
2023/04/10 06:53:48;;;;;;;10.18;6.07;;;;;;;;;;2055304;28;20480;-90
2023/04/10 06:55:11;;;;;;;8.73;5.82;;;;;;;;;;2064187;28;20089;-90
2023/04/10 06:56:12;;;;;;;7.50;6.30;;;;;;;;;;2066900;28;20026;-90
2023/04/10 06:57:18;;;;;;;9.73;7.18;;;;;;;;;;2063733;28;20034;-91
2023/04/10 06:58:19;;;;;;;11.07;7.78;;;;;;;;;;2063913;28;20315;-89
2023/04/10 06:59:20;;;;;;;12.80;9.38;;;;;;;;;;2063245;28;20054;-90
2023/04/10 07:00:20;;;;;;;13.52;8.30;;;;;;;;;;2055265;28;20405;-91
2023/04/10 07:01:30;;;;;;;8.98;6.60;;;;;;;;;;2047165;29;20066;-90
2023/04/10 07:02:30;;;;;;;9.23;5.90;;;;;;;;;;2064257;28;20030;-91
2023/04/10 07:03:31;;;;;;;9.50;5.88;;;;;;;;;;2071218;28;20143;-90
2023/04/10 07:04:33;;;;;;;6.38;5.20;;;;;;;;;;2071248;28;20053;-89
2023/04/10 07:05:33;;;;;;;6.68;4.95;;;;;;;;;;2063382;28;20092;-89
2023/04/10 07:06:35;;;;;;;6.10;4.28;;;;;;;;;;2054992;28;20430;-89
2023/04/10 07:07:36;;;;;;;5.00;4.38;;;;;;;;;;2055494;28;20029;-89
2023/04/10 07:08:36;;;;;;;6.90;4.90;;;;;;;;;;2064498;28;20030;-89
2023/04/10 07:09:36;;;;;;;7.50;4.78;;;;;;;;;;2063540;28;20373;-89
2023/04/10 07:10:37;;;;;;;6.45;5.05;;;;;;;;;;2055623;28;20045;-89
2023/04/10 07:11:37;;;;;;;7.32;5.10;;;;;;;;;;2055495;28;20027;-89
2023/04/10 07:12:39;;;;;;;7.07;4.40;;;;;;;;;;2063346;28;20611;-90
2023/04/10 07:13:40;;;;;;;7.22;4.63;;;;;;;;;;2063951;28;20027;-90
2023/04/10 07:14:41;;;;;;;6.43;4.90;;;;;;;;;;2073337;28;20161;-90
2023/04/10 07:15:44;;;;;;;7.75;5.10;;;;;;;;;;2068827;28;20018;-89
2023/04/10 07:16:47;;;;;;;9.35;5.18;;;;;;;;;;2062941;28;20027;-95
2023/04/10 07:17:47;;;;;;;7.75;4.50;;;;;;;;;;2058537;28;20122;-96
2023/04/10 07:18:48;;;;;;;8.05;4.88;;;;;;;;;;2050012;29;20039;-94
2023/04/10 07:19:48;;;;;;;6.97;4.72;;;;;;;;;;2058127;28;20039;-95
2023/04/10 07:20:51;;;;;;;9.98;5.43;;;;;;;;;;2058049;28;20486;-95
2023/04/10 07:21:54;;;;;;;7.85;5.82;;;;;;;;;;2059084;28;20122;-96
2023/04/10 07:22:56;;;;;;;7.95;5.72;;;;;;;;;;2055422;28;20056;-90
2023/04/10 07:23:56;;;;;;;10.00;6.70;;;;;;;;;;2064144;28;20031;-89
2023/04/10 07:24:57;;;;;;;9.52;5.78;;;;;;;;;;2064102;28;20034;-90
2023/04/10 07:25:58;;;;;;;13.23;7.35;;;;;;;;;;2055150;28;20557;-89
2023/04/10 07:27:00;;;;;;;10.60;7.20;;;;;;;;;;2047437;29;20027;-90
2023/04/10 07:28:00;;;;;;;9.88;6.03;;;;;;;;;;2063403;28;20049;-90
2023/04/10 07:29:01;;;;;;;8.18;5.78;;;;;;;;;;2071443;28;20501;-91
2023/04/10 07:30:01;;;;;;;7.65;5.25;;;;;;;;;;2063917;28;20069;-91
2023/04/10 07:31:02;;;;;;;9.02;5.47;;;;;;;;;;2054978;28;20030;-90
2023/04/10 07:32:02;;;;;;;7.43;5.60;;;;;;;;;;2054347;28;20046;-90
2023/04/10 07:33:03;;;;;;;9.38;6.53;;;;;;;;;;2062649;28;20130;-91
2023/04/10 07:34:03;;;;;;;;;;;;;;;;;;2063188;28;20070;-90
2023/04/10 07:35:05;;;;;;;9.17;5.57;;;;;;;;;;2054791;28;19949;-90
2023/04/10 07:36:05;;;;;;;9.05;6.05;;;;;;;;;;2054848;28;20030;-90
2023/04/10 07:37:06;;;;;;;9.10;5.40;;;;;;;;;;2062852;28;20033;-89
2023/04/10 07:38:06;;;;;;;6.95;5.03;;;;;;;;;;2062796;28;20127;-88
2023/04/10 07:39:07;;;;;;;9.45;5.40;;;;;;;;;;2063609;28;20108;-89
2023/04/10 07:40:08;;;;;;;9.48;6.35;;;;;;;;;;2065476;28;20503;-89
2023/04/10 07:41:10;;;;;;;9.25;6.57;;;;;;;;;;2055116;28;20085;-90
2023/04/10 07:42:11;;;;;;;8.35;6.00;;;;;;;;;;2055216;28;20030;-90
2023/04/10 07:43:11;;;;;;;6.70;5.03;;;;;;;;;;2063820;28;20034;-88
2023/04/10 07:44:12;;;;;;;7.38;5.43;;;;;;;;;;2063689;28;20046;-90
2023/04/10 07:45:12;;;;;;;6.97;5.47;;;;;;;;;;2054783;28;20485;-90
2023/04/10 07:46:13;;;;;;;10.27;5.60;;;;;;;;;;2054983;28;20030;-90
2023/04/10 07:47:13;;;;;;;9.77;6.68;;;;;;;;;;2063019;28;20137;-90
2023/04/10 07:48:14;;;;;;;8.50;5.80;;;;;;;;;;2062773;28;20230;-90
2023/04/10 07:49:15;;;;;;;7.65;5.35;;;;;;;;;;2054724;28;20117;-90
2023/04/10 07:50:16;;;;;;;;;;;;;;;;;;2055148;28;20086;-90
2023/04/10 07:51:16;;;;;;;8.52;5.03;;;;;;;;;;2062994;28;20313;-90
2023/04/10 07:52:16;;;;;;;;;;;;;;;;;;2071120;28;20042;-89
2023/04/10 07:53:17;;;;;;;8.07;5.27;;;;;;;;;;2062855;28;20033;-90
2023/04/10 07:54:17;;;;;;;7.80;5.68;;;;;;;;;;2054985;28;20486;-90
2023/04/10 07:55:18;;;;;;;6.10;5.05;;;;;;;;;;2063107;28;20271;-89
2023/04/10 07:56:20;;;;;;;8.80;5.13;;;;;;;;;;2055008;28;20034;-90
2023/04/10 07:57:20;;;;;;;6.85;5.25;;;;;;;;;;2054858;28;20050;-89
2023/04/10 07:58:21;;;;;;;7.50;5.40;;;;;;;;;;2054893;28;20034;-89
2023/04/10 07:59:21;;;;;;;7.78;5.50;;;;;;;;;;2062677;28;20200;-89
2023/04/10 08:00:22;;;;;;;7.57;5.55;;;;;;;;;;2062743;28;20026;-89
2023/04/10 08:01:22;;;;;;;6.38;5.57;;;;;;;;;;2063234;28;20030;-89
2023/04/10 08:02:22;;;;;;;7.70;5.05;;;;;;;;;;2055249;28;20572;-90
2023/04/10 08:03:23;;;;;;;7.68;5.10;;;;;;;;;;2047157;29;20027;-88
2023/04/10 08:04:23;;;;;;;8.40;5.13;;;;;;;;;;2055075;28;20478;-89
2023/04/10 08:05:24;;;;;;;8.75;4.93;;;;;;;;;;2063425;28;20030;-90
2023/04/10 08:06:24;;;;;;;9.10;5.80;;;;;;;;;;2062430;28;20113;-90
2023/04/10 08:07:25;;;;;;;8.35;4.95;;;;;;;;;;2062638;28;20026;-90
2023/04/10 08:08:25;;;;;;;7.40;4.80;;;;;;;;;;2056029;28;20041;-90
2023/04/10 08:09:25;;;;;;;7.57;5.03;;;;;;;;;;2059252;28;20031;-89
2023/04/10 08:10:26;;;;;;;7.78;4.88;;;;;;;;;;2065163;28;20475;-89
2023/04/10 08:11:28;;;;;;;;;;;;;;;;;;2063710;28;20089;-89
2023/04/10 08:12:28;;;;;;;7.35;5.07;;;;;;;;;;2063161;28;19909;-90
2023/04/10 08:13:28;;;;;;;9.20;6.30;;;;;;;;;;2054992;28;20035;-90
2023/04/10 08:14:29;;;;;;;9.73;5.63;;;;;;;;;;2054547;28;20114;-90
2023/04/10 08:15:29;;;;;;;8.85;5.30;;;;;;;;;;2064259;28;20026;-90
2023/04/10 08:16:32;;;;;;;8.85;5.80;;;;;;;;;;2063095;28;20080;-89
2023/04/10 08:17:32;;;;;;;10.45;5.88;;;;;;;;;;2054746;28;20031;-90
2023/04/10 08:18:33;;;;;;;10.23;7.15;;;;;;;;;;2054711;28;20093;-90
2023/04/10 08:19:33;;;;;;;12.40;7.93;;;;;;;;;;2063873;28;20347;-89
2023/04/10 08:20:35;;;;;;;13.63;8.32;;;;;;;;;;2062832;28;20037;-89
2023/04/10 08:21:36;;;;;;;11.98;8.60;;;;;;;;;;2054688;28;20034;-90
2023/04/10 08:22:37;;;;;;;12.50;7.72;;;;;;;;;;2056041;28;20042;-89
2023/04/10 08:23:37;;;;;;;10.98;7.45;;;;;;;;;;2065872;28;20035;-89
2023/04/10 08:24:37;;;;;;;11.02;7.70;;;;;;;;;;2070033;28;20019;-94